Time;durP1;ratioP1;P1;durP2;ratioP2;P2;SDS_P1;SDS_P2;PMS_P1;PMS_P2;Temp;Humidity;BMP_temperature;BMP_pressure;BME280_temperature;BME280_humidity;BME280_pressure;Samples;Min_cycle;Max_cycle;Signal;HPM_P1;HPM_P2
2021/12/13 00:02:04;;;;;;;7.32;4.38;;;;;;;9.63;100.00;102465.94;10543028;28;20036;-78
2021/12/13 00:07:24;;;;;;;6.13;5.20;;;;;;;9.60;100.00;102455.44;10545811;28;20028;-78
2021/12/13 00:12:34;;;;;;;5.63;4.07;;;;;;;9.55;100.00;102470.28;10550051;28;20048;-79
2021/12/13 00:17:43;;;;;;;13.35;4.43;;;;;;;9.55;100.00;102450.50;10543148;28;20036;-77
2021/12/13 00:22:46;;;;;;;10.93;3.42;;;;;;;9.53;100.00;102456.03;10543519;28;20028;-79
2021/12/13 00:27:50;;;;;;;8.50;3.38;;;;;;;9.48;100.00;102463.78;10542821;28;20039;-79
2021/12/13 00:33:03;;;;;;;11.25;3.20;;;;;;;9.38;100.00;102463.00;10542188;28;20036;-79
2021/12/13 00:38:04;;;;;;;12.73;4.45;;;;;;;9.34;100.00;102464.28;10542819;28;20383;-78
2021/12/13 00:43:22;;;;;;;5.75;3.60;;;;;;;9.54;100.00;102468.56;10542156;28;20032;-79
2021/12/13 00:48:23;;;;;;;16.23;4.47;;;;;;;9.57;100.00;102461.13;10542802;28;20035;-80
2021/12/13 00:53:24;;;;;;;3.30;2.85;;;;;;;9.65;100.00;102469.34;10541413;28;20044;-78
2021/12/13 00:58:24;;;;;;;3.83;2.58;;;;;;;9.62;100.00;102469.66;10540961;28;20413;-78
2021/12/13 01:03:40;;;;;;;1.85;1.70;;;;;;;9.65;100.00;102472.91;10540562;28;20039;-80
2021/12/13 01:09:02;;;;;;;5.57;2.08;;;;;;;9.69;100.00;102487.81;10540310;28;20059;-78
2021/12/13 01:14:10;;;;;;;7.38;2.85;;;;;;;9.70;100.00;102483.25;10541543;28;20383;-80
2021/12/13 01:19:36;;;;;;;4.38;2.42;;;;;;;9.70;100.00;102480.56;10540862;28;20487;-81
2021/12/13 01:30:17;;;;;;;5.72;3.08;;;;;;;9.73;100.00;102478.41;10464530;28;20123;-81
2021/12/13 01:35:22;;;;;;;4.03;2.97;;;;;;;9.73;100.00;102485.66;10539344;28;20031;-80
2021/12/13 01:40:28;;;;;;;4.88;2.80;;;;;;;9.80;100.00;102494.88;10538836;28;20042;-81
2021/12/13 01:45:30;;;;;;;5.53;2.80;;;;;;;9.78;100.00;102488.75;10539940;28;20036;-81
2021/12/13 01:50:42;;;;;;;4.05;3.13;;;;;;;9.80;100.00;102491.34;10538386;28;20078;-81
2021/12/13 01:55:45;;;;;;;5.40;3.80;;;;;;;9.83;100.00;102497.28;10548778;28;20062;-82
2021/12/13 02:06:05;;;;;;;6.13;4.95;;;;;;;9.78;100.00;102502.28;10547259;28;20063;-82
2021/12/13 02:11:05;;;;;;;11.70;4.95;;;;;;;9.83;100.00;102493.69;10545904;28;20083;-81
2021/12/13 02:21:30;;;;;;;6.93;5.78;;;;;;;9.97;100.00;102512.97;10549461;28;20122;-82
2021/12/13 02:26:31;;;;;;;8.73;6.83;;;;;;;9.86;100.00;102509.63;10567236;28;20035;-82
2021/12/13 02:31:34;;;;;;;11.90;6.05;;;;;;;9.86;100.00;102504.22;10568550;28;20047;-81
2021/12/13 02:36:38;;;;;;;9.88;7.10;;;;;;;9.89;100.00;102502.09;10548021;28;20032;-83
2021/12/13 02:41:38;;;;;;;13.63;7.22;;;;;;;9.89;100.00;102510.19;10548428;28;20020;-82
2021/12/13 02:46:39;;;;;;;16.23;7.65;;;;;;;9.88;100.00;102513.88;10546488;28;20115;-82
2021/12/13 02:51:49;;;;;;;11.52;7.60;;;;;;;9.89;100.00;102509.31;10546057;28;20523;-82
2021/12/13 02:56:55;;;;;;;12.88;7.57;;;;;;;9.89;100.00;102512.03;10545854;28;20077;-81
2021/12/13 03:02:20;;;;;;;15.50;9.50;;;;;;;9.94;100.00;102509.72;10546295;28;20020;-82
2021/12/13 03:07:30;;;;;;;10.25;8.20;;;;;;;9.91;100.00;102513.59;10545002;28;20076;-82
2021/12/13 03:12:31;;;;;;;8.57;6.97;;;;;;;9.83;100.00;102499.09;10545300;28;20056;-82
2021/12/13 03:17:47;;;;;;;8.25;7.50;;;;;;;9.79;100.00;102493.16;10546537;28;20388;-82
2021/12/13 03:23:17;;;;;;;7.70;6.45;;;;;;;9.81;100.00;102490.31;10529478;28;20024;-82
2021/12/13 03:28:54;;;;;;;8.48;6.30;;;;;;;9.78;100.00;102488.75;10544866;28;20497;-82
2021/12/13 03:34:00;;;;;;;15.98;8.05;;;;;;;9.83;100.00;102488.28;10544730;28;20025;-79
2021/12/13 03:39:00;;;;;;;8.57;7.13;;;;;;;9.85;100.00;102494.41;10544767;28;20075;-82
2021/12/13 03:44:06;;;;;;;14.57;6.43;;;;;;;9.84;100.00;102482.75;10542055;28;20047;-82
2021/12/13 03:49:07;;;;;;;7.25;5.90;;;;;;;9.82;100.00;102473.06;10544134;28;20036;-81
2021/12/13 03:54:11;;;;;;;7.13;5.80;;;;;;;9.81;100.00;102493.03;10544851;28;20032;-82
2021/12/13 03:59:17;;;;;;;14.27;6.90;;;;;;;9.89;100.00;102496.66;10542649;28;20448;-81
2021/12/13 04:04:38;;;;;;;10.13;8.27;;;;;;;9.86;100.00;102483.44;10544064;28;20474;-81
2021/12/13 04:09:39;;;;;;;5.60;5.10;;;;;;;9.85;100.00;102468.19;10544053;28;20059;-81
2021/12/13 04:14:45;;;;;;;8.20;5.93;;;;;;;9.87;100.00;102468.91;10523761;28;20220;-80
2021/12/13 04:19:50;;;;;;;11.50;6.03;;;;;;;9.91;100.00;102467.59;10542455;28;20039;-81
2021/12/13 04:25:21;;;;;;;5.55;5.05;;;;;;;9.80;100.00;102489.47;10543604;28;20257;-81
2021/12/13 04:30:25;;;;;;;5.18;4.53;;;;;;;9.87;100.00;102485.13;10532571;28;20104;-79
2021/12/13 04:35:27;;;;;;;5.47;4.57;;;;;;;9.86;100.00;102469.91;10540134;28;20229;-80
2021/12/13 04:40:29;;;;;;;7.40;5.28;;;;;;;9.81;100.00;102488.47;10524960;28;20070;-80
2021/12/13 04:45:30;;;;;;;7.25;4.57;;;;;;;9.87;100.00;102484.28;10552366;28;20036;-80
2021/12/13 04:50:35;;;;;;;7.38;4.57;;;;;;;9.82;100.00;102486.59;10553802;28;20394;-80
2021/12/13 04:55:37;;;;;;;6.03;4.63;;;;;;;9.87;100.00;102478.88;10542461;28;20111;-80
2021/12/13 05:00:40;;;;;;;5.40;4.90;;;;;;;9.79;100.00;102471.50;10540834;28;20028;-79
2021/12/13 05:05:41;;;;;;;8.48;5.38;;;;;;;9.85;100.00;102495.25;10541212;28;20444;-78
2021/12/13 05:10:46;;;;;;;5.32;4.93;;;;;;;9.82;100.00;102494.72;10539370;28;20056;-80
2021/12/13 05:15:58;;;;;;;6.97;5.40;;;;;;;9.90;100.00;102506.47;10542577;28;20028;-81
2021/12/13 05:21:12;;;;;;;10.40;5.38;;;;;;;9.88;100.00;102499.50;10540627;28;20390;-80
2021/12/13 05:26:12;;;;;;;16.40;5.47;;;;;;;9.87;100.00;102506.78;10538745;28;20032;-79
2021/12/13 05:31:19;;;;;;;6.35;5.63;;;;;;;9.90;100.00;102501.06;10522996;28;20067;-79
2021/12/13 05:36:24;;;;;;;6.18;4.35;;;;;;;9.93;100.00;102506.16;10540045;28;20024;-79
2021/12/13 05:41:26;;;;;;;5.43;4.75;;;;;;;9.87;100.00;102490.56;10541516;28;20074;-79
2021/12/13 05:46:38;;;;;;;4.53;4.13;;;;;;;9.79;100.00;102495.88;10540413;28;20024;-79
2021/12/13 05:51:41;;;;;;;7.43;4.72;;;;;;;9.89;100.00;102499.38;10542168;28;20422;-80
2021/12/13 05:56:43;;;;;;;6.10;3.78;;;;;;;9.91;100.00;102508.16;10540299;28;20021;-79
2021/12/13 06:01:59;;;;;;;5.57;5.07;;;;;;;9.93;100.00;102505.31;10540777;28;20544;-85
2021/12/13 06:06:59;;;;;;;10.75;4.65;;;;;;;9.83;100.00;102502.69;10539044;28;20456;-83
2021/12/13 06:12:04;;;;;;;11.30;5.38;;;;;;;9.91;100.00;102521.69;10538910;28;20119;-83
2021/12/13 06:17:30;;;;;;;4.90;4.40;;;;;;;9.83;100.00;102509.94;10540849;28;20128;-84
2021/12/13 06:22:32;;;;;;;9.10;5.57;;;;;;;9.82;100.00;102506.38;10539222;28;20036;-83
2021/12/13 06:27:43;;;;;;;7.22;5.70;;;;;;;9.85;100.00;102519.59;10538521;28;20020;-80
2021/12/13 06:33:01;;;;;;;7.30;6.03;;;;;;;9.78;100.00;102518.53;10539843;28;20032;-80
2021/12/13 06:38:19;;;;;;;13.18;5.68;;;;;;;9.78;100.00;102513.97;10542732;28;20040;-80
2021/12/13 06:43:34;;;;;;;5.80;5.30;;;;;;;9.78;100.00;102513.97;10548625;28;20171;-80
2021/12/13 06:48:40;;;;;;;9.70;6.10;;;;;;;9.78;100.00;102515.81;10548256;28;20569;-81
2021/12/13 06:53:41;;;;;;;10.05;7.35;;;;;;;9.78;100.00;102518.53;10546861;28;20043;-80
2021/12/13 06:58:42;;;;;;;8.43;6.53;;;;;;;9.73;100.00;102524.41;10528574;28;20051;-81
2021/12/13 07:03:42;;;;;;;19.02;7.75;;;;;;;9.69;100.00;102524.84;10530798;28;20120;-81
2021/12/13 07:08:42;;;;;;;15.00;7.22;;;;;;;9.68;100.00;102536.69;10531840;28;20060;-80
2021/12/13 07:13:50;;;;;;;9.20;8.07;;;;;;;9.67;100.00;102537.69;10545441;28;20051;-80
2021/12/13 07:19:02;;;;;;;15.02;7.68;;;;;;;9.72;100.00;102541.63;10544758;28;20047;-80
2021/12/13 07:24:08;;;;;;;15.30;6.95;;;;;;;9.70;100.00;102553.59;10544478;28;20039;-78
2021/12/13 07:29:18;;;;;;;7.80;7.15;;;;;;;9.68;100.00;102558.31;10545068;28;20036;-80
2021/12/13 07:34:19;;;;;;;9.30;7.10;;;;;;;9.74;100.00;102563.13;10544604;28;20056;-80
2021/12/13 07:39:20;;;;;;;15.05;7.30;;;;;;;9.72;100.00;102565.97;10544493;28;20056;-80
2021/12/13 07:44:31;;;;;;;12.95;7.32;;;;;;;9.74;100.00;102568.53;10546387;28;20071;-80
2021/12/13 07:49:35;;;;;;;12.65;7.68;;;;;;;9.75;100.00;102587.31;10548510;28;20039;-81
2021/12/13 07:54:40;;;;;;;11.95;8.45;;;;;;;9.69;100.00;102579.78;10548509;28;20039;-80
2021/12/13 07:59:40;;;;;;;13.27;9.35;;;;;;;9.70;100.00;102575.22;10546619;28;20036;-80
2021/12/13 08:04:41;;;;;;;9.30;6.32;;;;;;;9.76;100.00;102569.22;10545458;28;20032;-81
2021/12/13 08:09:56;;;;;;;9.55;8.00;;;;;;;9.74;100.00;102571.25;10544226;28;20056;-79
2021/12/13 08:15:07;;;;;;;16.15;8.20;;;;;;;9.72;100.00;102579.50;10543216;28;20067;-80
2021/12/13 08:20:10;;;;;;;15.25;7.45;;;;;;;9.73;100.00;102573.09;10544072;28;20032;-81
2021/12/13 08:25:19;;;;;;;12.43;8.50;;;;;;;9.76;100.00;102564.69;10543138;28;20483;-81
2021/12/13 08:30:24;;;;;;;10.30;7.03;;;;;;;9.80;100.00;102567.94;10542033;28;20433;-81
2021/12/13 08:35:25;;;;;;;12.43;8.00;;;;;;;9.80;100.00;102576.06;10543149;28;20035;-81
2021/12/13 08:40:28;;;;;;;10.75;7.07;;;;;;;9.85;100.00;102578.28;10541092;28;20071;-79
2021/12/13 08:45:36;;;;;;;21.85;7.95;;;;;;;9.89;100.00;102579.69;10541522;28;20032;-81
2021/12/13 08:50:40;;;;;;;10.90;7.63;;;;;;;9.99;100.00;102596.72;10542961;28;20032;-81
2021/12/13 08:55:44;;;;;;;9.95;7.68;;;;;;;10.06;100.00;102607.78;10541029;28;20044;-81
2021/12/13 09:00:46;;;;;;;11.45;6.93;;;;;;;10.10;100.00;102604.63;10539823;28;20031;-81
2021/12/13 09:06:11;;;;;;;13.07;9.00;;;;;;;10.14;100.00;102613.28;10540106;28;20039;-81
2021/12/13 09:11:33;;;;;;;9.63;7.95;;;;;;;10.17;100.00;102624.66;10541047;28;20079;-81
2021/12/13 09:17:13;;;;;;;12.63;9.27;;;;;;;10.18;100.00;102639.06;10541478;28;20036;-81
2021/12/13 09:22:18;;;;;;;13.88;8.30;;;;;;;10.24;100.00;102660.97;10554948;28;20039;-81
2021/12/13 09:27:18;;;;;;;10.20;8.90;;;;;;;10.25;100.00;102654.53;10549656;28;20074;-81
2021/12/13 09:32:18;;;;;;;11.40;8.57;;;;;;;10.27;100.00;102665.22;10540280;28;20494;-81
2021/12/13 09:37:19;;;;;;;12.57;9.57;;;;;;;10.35;100.00;102670.75;10540653;28;20352;-80
2021/12/13 09:42:19;;;;;;;15.40;8.13;;;;;;;10.36;100.00;102668.88;10540787;28;20036;-81
2021/12/13 09:47:29;;;;;;;15.32;9.45;;;;;;;10.35;100.00;102683.44;10540503;28;20028;-81
2021/12/13 09:52:34;;;;;;;24.35;9.15;;;;;;;10.37;100.00;102681.41;10540635;28;20032;-80
2021/12/13 09:57:37;;;;;;;16.85;10.50;;;;;;;10.33;100.00;102675.47;10539777;28;20043;-80
2021/12/13 10:02:40;;;;;;;11.18;9.75;;;;;;;10.42;100.00;102663.72;10540136;28;20036;-81
2021/12/13 10:07:42;;;;;;;13.88;11.05;;;;;;;10.48;100.00;102673.09;10539829;28;20039;-81
2021/12/13 10:12:55;;;;;;;13.48;10.05;;;;;;;10.53;100.00;102673.50;10540004;28;20040;-80
2021/12/13 10:18:01;;;;;;;15.48;10.88;;;;;;;10.54;100.00;102671.63;10548018;28;20382;-80
2021/12/13 10:23:04;;;;;;;24.10;11.07;;;;;;;10.55;100.00;102674.16;10529953;28;20474;-80
2021/12/13 10:28:07;;;;;;;23.48;10.73;;;;;;;10.65;100.00;102676.81;10547336;28;20032;-80
2021/12/13 10:33:09;;;;;;;19.73;11.80;;;;;;;10.70;100.00;102680.75;10545283;28;20032;-80
2021/12/13 10:38:24;;;;;;;22.70;11.32;;;;;;;10.68;100.00;102673.78;10528262;28;20035;-80
2021/12/13 10:43:29;;;;;;;19.17;12.00;;;;;;;10.73;100.00;102676.91;10528644;28;20055;-80
2021/12/13 10:48:31;;;;;;;19.55;13.02;;;;;;;10.55;100.00;102667.91;10546262;28;20057;-80
2021/12/13 10:53:31;;;;;;;20.65;13.82;;;;;;;10.43;100.00;102673.56;10544134;28;20047;-80
2021/12/13 10:58:34;;;;;;;22.15;12.20;;;;;;;10.53;100.00;102673.50;10545765;28;20043;-80
2021/12/13 11:03:35;;;;;;;16.35;11.20;;;;;;;10.55;100.00;102682.28;10543879;28;20028;-80
2021/12/13 11:08:41;;;;;;;20.42;12.75;;;;;;;10.57;100.00;102666.75;10527269;28;20425;-78
2021/12/13 11:13:42;;;;;;;11.43;9.85;;;;;;;10.65;100.00;102657.84;10560260;28;20047;-79
2021/12/13 11:18:44;;;;;;;20.80;11.35;;;;;;;10.77;100.00;102659.31;10546250;28;20333;-80
2021/12/13 11:23:45;;;;;;;21.80;10.20;;;;;;;10.80;100.00;102661.72;10544918;28;20040;-79
2021/12/13 11:28:45;;;;;;;13.63;10.98;;;;;;;10.82;100.00;102653.44;10545031;28;20107;-80
2021/12/13 11:34:02;;;;;;;13.00;10.95;;;;;;;10.78;100.00;102658.28;10547341;28;20036;-79
2021/12/13 11:39:32;;;;;;;17.73;11.10;;;;;;;10.66;100.00;102665.84;10553289;28;20422;-79
2021/12/13 11:45:10;;;;;;;15.55;11.48;;;;;;;10.70;100.00;102661.78;10549450;28;20038;-79
2021/12/13 11:50:32;;;;;;;20.00;12.18;;;;;;;10.73;100.00;102665.22;10543726;28;20024;-79
2021/12/13 11:55:51;;;;;;;17.50;10.73;;;;;;;10.69;100.00;102656.53;10543343;28;20134;-79
2021/12/13 12:01:25;;;;;;;21.65;10.57;;;;;;;10.80;100.00;102650.03;10544109;28;20039;-79
2021/12/13 12:06:47;;;;;;;15.80;10.45;;;;;;;10.81;100.00;102659.84;10542909;28;20475;-79
2021/12/13 12:11:59;;;;;;;22.33;12.27;;;;;;;10.70;100.00;102648.25;10544393;28;20336;-79
2021/12/13 12:17:00;;;;;;;21.70;9.38;;;;;;;10.75;100.00;102646.91;10546735;28;20071;-79
2021/12/13 12:22:13;;;;;;;24.00;12.13;;;;;;;10.66;100.00;102654.16;10544092;28;20074;-79
2021/12/13 12:27:18;;;;;;;19.40;11.57;;;;;;;10.70;100.00;102647.41;10544079;28;20028;-79
2021/12/13 12:32:39;;;;;;;15.82;10.27;;;;;;;10.56;100.00;102648.81;10544440;28;20478;-79
2021/12/13 12:38:00;;;;;;;25.73;10.95;;;;;;;10.55;100.00;102657.06;10543219;28;20097;-78
2021/12/13 12:43:01;;;;;;;13.32;9.93;;;;;;;10.46;100.00;102653.41;10544409;28;20110;-79
2021/12/13 12:48:03;;;;;;;28.02;13.52;;;;;;;10.39;100.00;102655.91;10542432;28;20120;-80
2021/12/13 12:53:15;;;;;;;23.20;14.70;;;;;;;10.35;100.00;102653.66;10545399;28;20036;-78
2021/12/13 12:58:19;;;;;;;14.43;12.80;;;;;;;10.35;100.00;102656.38;10542524;28;20039;-78
2021/12/13 13:03:36;;;;;;;19.48;10.98;;;;;;;10.35;100.00;102657.22;10541393;28;20349;-77
2021/12/13 13:08:39;;;;;;;23.80;11.93;;;;;;;10.43;100.00;102649.19;10540468;28;20079;-78
2021/12/13 13:13:40;;;;;;;21.63;10.88;;;;;;;10.45;100.00;102651.72;10543194;28;20063;-78
2021/12/13 13:18:40;;;;;;;21.73;13.70;;;;;;;10.53;100.00;102659.06;10539949;28;20063;-78
2021/12/13 13:23:48;;;;;;;21.38;11.20;;;;;;;10.60;100.00;102649.34;10541367;28;20063;-78
2021/12/13 13:28:53;;;;;;;18.90;11.15;;;;;;;10.62;100.00;102647.31;10540513;28;20461;-78
2021/12/13 13:34:03;;;;;;;17.85;10.63;;;;;;;10.69;100.00;102643.00;10540195;28;20028;-79
2021/12/13 13:39:18;;;;;;;20.48;11.10;;;;;;;10.69;100.00;102651.13;10524542;28;20119;-78
2021/12/13 13:44:21;;;;;;;14.63;11.30;;;;;;;10.68;100.00;102641.28;10542236;28;20390;-78
2021/12/13 13:49:21;;;;;;;21.55;10.75;;;;;;;10.56;100.00;102653.34;10547807;28;20118;-78
2021/12/13 13:54:21;;;;;;;13.27;10.57;;;;;;;10.57;100.00;102655.91;10554744;28;20459;-78
2021/12/13 13:59:25;;;;;;;20.40;11.25;;;;;;;10.58;100.00;102656.75;10554836;28;20032;-78
2021/12/13 14:04:34;;;;;;;19.42;11.60;;;;;;;10.54;100.00;102649.97;10548342;28;20471;-77
2021/12/13 14:09:39;;;;;;;13.13;11.05;;;;;;;10.41;100.00;102664.72;10547485;28;20111;-78
2021/12/13 14:14:51;;;;;;;12.63;10.20;;;;;;;10.40;100.00;102652.19;10549615;28;20035;-77
2021/12/13 14:19:52;;;;;;;18.08;11.88;;;;;;;10.27;100.00;102653.56;10549853;28;20028;-77
2021/12/13 14:24:53;;;;;;;20.63;11.82;;;;;;;10.33;100.00;102644.81;10547406;28;20500;-77
2021/12/13 14:30:18;;;;;;;18.50;10.13;;;;;;;10.32;100.00;102646.69;10546459;28;20039;-77
2021/12/13 14:35:20;;;;;;;19.70;10.90;;;;;;;10.16;100.00;102657.31;10547252;28;20035;-77
2021/12/13 14:40:20;;;;;;;17.33;12.05;;;;;;;10.16;100.00;102662.72;10547518;28;20043;-77
2021/12/13 14:45:21;;;;;;;19.10;11.00;;;;;;;10.19;100.00;102662.41;10545986;28;20500;-77
2021/12/13 14:50:23;;;;;;;20.23;11.45;;;;;;;10.11;100.00;102665.03;10545637;28;20028;-77
2021/12/13 14:55:36;;;;;;;14.57;12.50;;;;;;;10.02;100.00;102672.22;10545020;28;20044;-77
2021/12/13 15:00:41;;;;;;;21.30;13.00;;;;;;;10.11;100.00;102670.44;10546353;28;20032;-77
2021/12/13 15:05:46;;;;;;;15.48;11.20;;;;;;;10.02;100.00;102675.75;10545166;28;20089;-77
2021/12/13 15:10:53;;;;;;;18.98;11.98;;;;;;;9.97;100.00;102669.94;10544409;28;20399;-77
2021/12/13 15:15:59;;;;;;;13.38;10.02;;;;;;;9.92;100.00;102661.44;10545612;28;20044;-75
2021/12/13 15:21:02;;;;;;;19.97;10.03;;;;;;;9.89;100.00;102667.16;10544683;28;20040;-77
2021/12/13 15:26:08;;;;;;;16.90;9.48;;;;;;;9.90;100.00;102668.84;10545118;28;20482;-77
2021/12/13 15:31:12;;;;;;;16.87;10.87;;;;;;;9.93;100.00;102673.09;10544427;28;20391;-77
2021/12/13 15:36:13;;;;;;;22.90;11.23;;;;;;;9.89;100.00;102672.56;10543129;28;20032;-77
2021/12/13 15:41:16;;;;;;;17.67;10.43;;;;;;;9.84;100.00;102669.44;10543694;28;20043;-76
2021/12/13 15:46:22;;;;;;;16.15;10.05;;;;;;;9.78;100.00;102670.88;10543374;28;20517;-77
2021/12/13 15:51:24;;;;;;;14.63;10.80;;;;;;;9.76;100.00;102666.59;10542197;28;20028;-77
2021/12/13 15:56:27;;;;;;;15.75;9.63;;;;;;;9.66;100.00;102676.63;10543779;28;20036;-77
2021/12/13 16:01:35;;;;;;;14.77;8.10;;;;;;;9.70;100.00;102678.91;10542689;28;20039;-77
2021/12/13 16:06:38;;;;;;;20.85;11.57;;;;;;;9.59;100.00;102680.94;10544120;28;20043;-77
2021/12/13 16:11:43;;;;;;;17.20;12.45;;;;;;;9.56;100.00;102687.47;10562698;28;20146;-77
2021/12/13 16:16:53;;;;;;;12.57;10.07;;;;;;;9.63;100.00;102683.19;10543323;28;20464;-77
2021/12/13 16:21:53;;;;;;;12.23;10.35;;;;;;;9.67;100.00;102686.47;10542391;28;20119;-77
2021/12/13 16:26:54;;;;;;;14.85;10.48;;;;;;;9.68;100.00;102678.19;10559136;28;20126;-76
2021/12/13 16:31:54;;;;;;;14.32;9.60;;;;;;;9.62;100.00;102684.19;10541608;28;20143;-76
2021/12/13 16:36:58;;;;;;;13.10;9.77;;;;;;;9.61;100.00;102668.97;10542707;28;20036;-77
2021/12/13 16:42:05;;;;;;;19.38;10.32;;;;;;;9.61;100.00;102666.25;10541468;28;20412;-77
2021/12/13 16:47:11;;;;;;;14.80;11.13;;;;;;;9.57;100.00;102663.97;10540586;28;20032;-77
2021/12/13 16:52:21;;;;;;;13.00;9.87;;;;;;;9.51;100.00;102662.75;10540130;28;20070;-77
2021/12/13 16:57:33;;;;;;;15.18;9.85;;;;;;;9.48;100.00;102669.28;10540251;28;20032;-76
2021/12/13 17:02:34;;;;;;;18.55;11.27;;;;;;;9.52;100.00;102669.84;10539652;28;20116;-77
2021/12/13 17:07:36;;;;;;;14.25;9.65;;;;;;;9.53;100.00;102666.97;10539443;28;20085;-77
2021/12/13 17:12:59;;;;;;;11.93;9.88;;;;;;;9.52;100.00;102662.59;10541049;28;20451;-76
2021/12/13 17:18:30;;;;;;;16.33;10.82;;;;;;;9.47;100.00;102667.56;10541833;28;20467;-77
2021/12/13 17:23:35;;;;;;;20.08;12.30;;;;;;;9.44;100.00;102659.75;10540471;28;20549;-76
2021/12/13 17:28:37;;;;;;;15.40;10.98;;;;;;;9.46;100.00;102660.47;10539983;28;20028;-76
2021/12/13 17:33:38;;;;;;;13.65;9.98;;;;;;;9.42;100.00;102650.94;10541251;28;20028;-76
2021/12/13 17:38:38;;;;;;;15.65;9.70;;;;;;;9.43;100.00;102649.94;10538049;28;20027;-76
2021/12/13 17:43:40;;;;;;;21.70;11.27;;;;;;;9.36;100.00;102664.22;10521720;28;20035;-76
2021/12/13 17:48:45;;;;;;;13.05;9.75;;;;;;;9.32;100.00;102664.50;10538329;28;20043;-76
2021/12/13 17:53:49;;;;;;;16.20;9.60;;;;;;;9.32;100.00;102669.06;10539976;28;20391;-76
2021/12/13 17:58:55;;;;;;;27.15;11.25;;;;;;;9.25;100.00;102651.69;10538591;28;20032;-76
2021/12/13 18:04:13;;;;;;;14.93;10.63;;;;;;;9.26;100.00;102665.06;10539680;28;20028;-76
2021/12/13 18:09:30;;;;;;;18.70;11.13;;;;;;;9.26;100.00;102669.63;10538027;28;20036;-75
2021/12/13 18:14:33;;;;;;;13.52;12.18;;;;;;;9.21;100.00;102658.41;10540067;28;20111;-75
2021/12/13 18:19:35;;;;;;;13.88;11.38;;;;;;;9.26;100.00;102669.63;10537850;28;20028;-76
2021/12/13 18:24:37;;;;;;;19.17;10.77;;;;;;;9.30;100.00;102680.00;10541791;28;20177;-76
2021/12/13 18:29:45;;;;;;;16.52;10.73;;;;;;;9.25;100.00;102673.31;10542125;28;20068;-76
2021/12/13 18:34:45;;;;;;;15.77;9.98;;;;;;;9.28;100.00;102673.03;10524917;28;20082;-75
2021/12/13 18:39:48;;;;;;;12.57;8.77;;;;;;;9.32;100.00;102667.19;10545856;28;20054;-76
2021/12/13 18:44:53;;;;;;;13.32;9.80;;;;;;;9.32;100.00;102682.56;10544943;28;20515;-76
2021/12/13 18:50:03;;;;;;;12.50;9.90;;;;;;;9.33;100.00;102686.97;10547709;28;20035;-76
2021/12/13 18:55:17;;;;;;;16.55;10.18;;;;;;;9.32;100.00;102688.84;10546084;28;20379;-76
2021/12/13 19:00:41;;;;;;;13.75;9.40;;;;;;;9.32;100.00;102686.13;10547256;28;20075;-76
2021/12/13 19:05:50;;;;;;;20.15;10.90;;;;;;;9.31;100.00;102695.22;10545880;28;20062;-75
2021/12/13 19:11:00;;;;;;;13.50;10.80;;;;;;;9.31;100.00;102694.38;10547363;28;20138;-75
2021/12/13 19:16:06;;;;;;;15.43;10.40;;;;;;;9.20;100.00;102697.25;10546927;28;20182;-76
2021/12/13 19:21:13;;;;;;;10.32;8.95;;;;;;;9.13;100.00;102696.13;10545960;28;20107;-75
2021/12/13 19:26:16;;;;;;;11.15;10.15;;;;;;;9.15;100.00;102700.38;10545566;28;20058;-75
2021/12/13 19:31:28;;;;;;;15.27;9.23;;;;;;;9.24;100.00;102704.06;10545044;28;20361;-75
2021/12/13 19:36:30;;;;;;;12.25;8.75;;;;;;;9.17;100.00;102689.44;10545545;28;20046;-75
2021/12/13 19:41:51;;;;;;;11.13;10.00;;;;;;;9.05;100.00;102684.16;10544352;28;20109;-77
2021/12/13 19:47:07;;;;;;;17.05;12.27;;;;;;;9.10;100.00;102677.50;10543508;28;20031;-77
2021/12/13 19:52:21;;;;;;;13.95;11.55;;;;;;;9.15;100.00;102688.69;10542413;28;20109;-76
2021/12/13 19:57:27;;;;;;;14.27;11.43;;;;;;;9.10;100.00;102669.38;10544629;28;20120;-75
2021/12/13 20:02:42;;;;;;;19.55;11.60;;;;;;;9.06;100.00;102664.25;10542995;28;20028;-77
2021/12/13 20:07:50;;;;;;;15.70;12.63;;;;;;;9.07;100.00;102671.38;10527150;28;20486;-77
2021/12/13 20:12:53;;;;;;;19.42;14.13;;;;;;;9.07;100.00;102673.22;10543435;28;20052;-75
2021/12/13 20:17:58;;;;;;;20.30;15.75;;;;;;;9.03;100.00;102674.47;10543165;28;20039;-77
2021/12/13 20:23:03;;;;;;;18.25;14.90;;;;;;;9.02;100.00;102668.22;10543120;28;20028;-77
2021/12/13 20:28:13;;;;;;;31.73;15.73;;;;;;;9.03;100.00;102667.25;10542818;28;20363;-77
2021/12/13 20:33:16;;;;;;;22.08;15.68;;;;;;;9.02;100.00;102664.69;10542905;28;20035;-75
2021/12/13 20:38:17;;;;;;;19.40;13.13;;;;;;;9.04;100.00;102671.66;10546192;28;20028;-76
2021/12/13 20:43:38;;;;;;;19.10;14.50;;;;;;;9.03;100.00;102672.66;10550149;28;20476;-76
2021/12/13 20:48:48;;;;;;;20.83;13.02;;;;;;;9.00;100.00;102672.94;10542686;28;20023;-76
2021/12/13 20:53:50;;;;;;;20.67;12.27;;;;;;;9.01;100.00;102677.34;10542830;28;20444;-77
2021/12/13 20:58:55;;;;;;;14.70;12.27;;;;;;;9.00;100.00;102675.66;10543210;28;20032;-76
2021/12/13 21:04:39;;;;;;;22.92;14.77;;;;;;;8.96;100.00;102674.22;10541465;28;20383;-76
2021/12/13 21:09:41;;;;;;;19.38;13.52;;;;;;;8.97;100.00;102670.53;10535651;28;20055;-78
2021/12/13 21:14:47;;;;;;;21.40;14.05;;;;;;;8.97;100.00;102670.53;10541424;28;20492;-78
2021/12/13 21:19:55;;;;;;;20.02;13.95;;;;;;;8.92;100.00;102677.34;10541336;28;20371;-75
2021/12/13 21:25:01;;;;;;;16.65;12.77;;;;;;;8.88;100.00;102668.69;10542172;28;20036;-76
2021/12/13 21:30:09;;;;;;;23.15;13.88;;;;;;;8.82;100.00;102671.97;10541855;28;20036;-75
2021/12/13 21:35:29;;;;;;;20.23;15.35;;;;;;;8.77;100.00;102675.06;10540785;28;20059;-75
2021/12/13 21:40:36;;;;;;;20.20;13.68;;;;;;;8.78;100.00;102681.34;10541515;28;20044;-75
2021/12/13 21:45:54;;;;;;;22.35;14.55;;;;;;;8.79;100.00;102685.75;10539039;28;20024;-75
2021/12/13 21:50:59;;;;;;;18.90;15.90;;;;;;;8.66;100.00;102687.88;10540773;28;20032;-75
2021/12/13 21:56:01;;;;;;;20.38;15.32;;;;;;;8.63;100.00;102682.75;10542181;28;20036;-75
2021/12/13 22:01:17;;;;;;;19.92;15.23;;;;;;;8.72;100.00;102673.81;10540471;28;20043;-75
2021/12/13 22:06:18;;;;;;;20.00;15.10;;;;;;;8.70;100.00;102673.94;10540756;28;20032;-75
2021/12/13 22:11:29;;;;;;;26.63;16.05;;;;;;;8.64;100.00;102670.94;10528987;28;20139;-75
2021/12/13 22:16:34;;;;;;;21.50;13.55;;;;;;;8.53;100.00;102670.09;10549644;28;20059;-75
2021/12/13 22:21:34;;;;;;;27.73;16.30;;;;;;;8.63;100.00;102680.06;10548697;28;20035;-75
2021/12/13 22:26:44;;;;;;;23.17;16.67;;;;;;;8.69;100.00;102682.19;10547374;28;20551;-75
2021/12/13 22:31:46;;;;;;;24.45;16.98;;;;;;;8.71;100.00;102693.69;10564346;28;20097;-75
2021/12/13 22:36:46;;;;;;;22.48;16.58;;;;;;;8.69;100.00;102684.91;10529833;28;20028;-73
2021/12/13 22:41:58;;;;;;;25.48;17.05;;;;;;;8.62;100.00;102676.50;10546120;28;20032;-75
2021/12/13 22:47:03;;;;;;;22.15;16.67;;;;;;;8.71;100.00;102680.19;10546700;28;20467;-74
2021/12/13 22:52:07;;;;;;;25.08;17.55;;;;;;;8.67;100.00;102665.25;10545783;28;20026;-75
2021/12/13 22:57:08;;;;;;;19.95;16.25;;;;;;;8.67;100.00;102668.81;10545875;28;20036;-75
2021/12/13 23:02:29;;;;;;;27.98;16.25;;;;;;;8.68;100.00;102654.34;10549192;28;20032;-75
2021/12/13 23:07:30;;;;;;;20.33;15.80;;;;;;;8.56;100.00;102659.00;10546313;28;20172;-75
2021/12/13 23:17:52;;;;;;;25.08;18.02;;;;;;;8.49;100.00;102641.69;10545277;28;20067;-75
2021/12/13 23:22:53;;;;;;;28.50;17.38;;;;;;;8.56;100.00;102640.09;10543495;28;20422;-74
2021/12/13 23:27:54;;;;;;;20.90;15.88;;;;;;;8.54;100.00;102634.00;10546557;28;20086;-75